METAR Data
IDs: Format: Raw Decoded Include TAF

Data at: 0251 UTC 25 Feb 2021

EKBI 250220Z AUTO 21011KT 180V250 9999 SCT074/// BKN096/// 11/06 Q1021